Impacts TAF Board
For situational awareness. Not to be used for flight planning purposes.
IDs:

KSEA - Seattle-Tacoma Intl, WA, US

Issued at 0540 UTC 03 Jul 2022
Updated at 0624 UTC 03 Jul 2022
Potential Impact None Slight Moderate High
Time0553Z 03/07Z 03/08Z 03/09Z 03/10Z 03/11Z 03/12Z 03/13Z 03/14Z 03/15Z 03/16Z 03/17Z 03/18Z 03/19Z>>
Type OBS PRVL PRVL PRVL PRVL PRVL PRVL PRVL PRVL PRVL PRVL PRVL PRVL PRVL
VIS 10 >6 >6 >6 >6 >6 >6 >6 >6 >6 >6 >6 >6 >6
CIG 49 -- -- 15 15 15 15 15 8 8 8 8 8 20
Cover BKN SCT SCT OVC OVC OVC OVC OVC OVC OVC OVC OVC OVC OVC
FltCat VFR VFR VFR MVFR MVFR MVFR MVFR MVFR IFR IFR IFR IFR IFR MVFR
WX -- -- -- VCSH VCSH VCSH VCSH VCSH VCSH VCSH VCSH VCSH VCSH -SHRA
WDir 230 220 220 210 210 210 210 210 210 210 210 210 210 210
WSpd 7 8 8 5 5 5 5 5 6 6 6 6 6 8
WGst -- -- -- -- -- -- -- -- -- -- -- -- -- --
WSHgt -- -- -- -- -- -- -- -- -- -- -- -- -- --
WSDir -- -- -- -- -- -- -- -- -- -- -- -- -- --
WSSpd -- -- -- -- -- -- -- -- -- -- -- -- -- --
Raw TAF
KSEA 030540Z 0306/0412 22008KT P6SM SCT030 SCT200
  FM030900 21005KT P6SM VCSH OVC015
  FM031400 21006KT P6SM VCSH OVC008
  FM031900 21008KT P6SM -SHRA OVC020


Raw METAR
KSEA 030553Z 23007KT 10SM FEW023 BKN049 16/12 A2992 RMK AO2 SLP138 T01560117 10189 20156 53008 $
KSEA 030453Z 22006KT 10SM FEW025 BKN039 17/12 A2992 RMK AO2 SLP135 T01670122 $
KSEA 030353Z 23004KT 10SM FEW030 SCT110 BKN210 17/12 A2990 RMK AO2 SLP131 T01720122 $

METAR Board
Radar Display
Forecast Discussion
For situational awareness. Not to be used for flight planning purposes.